Time;durP1;ratioP1;P1;durP2;ratioP2;P2;SDS_P1;SDS_P2;PMS_P1;PMS_P2;Temp;Humidity;BMP_temperature;BMP_pressure;BME280_temperature;BME280_humidity;BME280_pressure;Samples;Min_cycle;Max_cycle;Signal;HPM_P1;HPM_P2
2021/11/12 00:12:42;;;;;;;474.63;427.00;;;12.40;96.20;;;11.53;100.00;100965.28;5088580;28;20505;-67
2021/11/12 00:15:12;;;;;;;473.90;425.87;;;12.40;96.30;;;11.58;100.00;100967.13;5088963;28;20427;-69
2021/11/12 00:17:42;;;;;;;477.48;429.63;;;12.40;96.60;;;11.64;100.00;100960.53;5089257;28;20424;-67
2021/11/12 00:20:12;;;;;;;471.40;423.50;;;12.40;96.70;;;11.64;100.00;100964.06;5088521;28;20467;-64
2021/11/12 00:22:40;;;;;;;480.75;432.67;;;12.50;96.70;;;11.67;100.00;100973.50;5088856;28;20406;-64
2021/11/12 00:25:09;;;;;;;485.20;437.20;;;12.50;96.90;;;11.70;100.00;100965.63;5088946;28;20487;-66
2021/11/12 00:27:38;;;;;;;488.55;440.02;;;12.60;97.00;;;11.77;100.00;100963.34;5088780;28;20448;-66
2021/11/12 00:30:20;;;;;;;481.55;433.48;;;12.60;97.10;;;11.77;100.00;100963.34;5088251;28;20410;-68
2021/11/12 00:32:58;;;;;;;484.25;435.75;;;12.60;97.00;;;11.83;100.00;100959.44;5089144;28;20430;-67
2021/11/12 00:35:31;;;;;;;493.30;445.20;;;12.70;97.30;;;11.87;100.00;100955.06;5088678;28;20428;-67
2021/11/12 00:38:04;;;;;;;483.13;434.77;;;12.70;97.20;;;11.87;100.00;100952.34;5088781;28;20421;-65
2021/11/12 00:40:42;;;;;;;495.17;446.93;;;12.70;97.20;;;11.88;100.00;100945.84;5088222;28;20401;-71
2021/11/12 00:43:17;;;;;;;495.48;446.77;;;12.70;97.10;;;11.90;100.00;100946.34;5089116;28;20872;-69
2021/11/12 00:45:54;;;;;;;489.60;441.35;;;12.70;97.20;;;11.87;100.00;100936.09;5088948;28;20420;-69
2021/11/12 00:48:27;;;;;;;491.08;443.15;;;12.70;97.10;;;11.82;100.00;100928.06;5088350;28;20440;-65
2021/11/12 00:51:09;;;;;;;491.58;443.35;;;12.70;97.00;;;11.76;100.00;100921.09;5088241;28;20697;-66
2021/11/12 00:53:53;;;;;;;485.13;437.15;;;12.60;96.90;;;11.75;100.00;100915.97;5088738;28;20408;-66
2021/11/12 00:56:25;;;;;;;485.43;436.80;;;12.60;97.00;;;11.75;100.00;100918.69;5088578;28;20414;-65
2021/11/12 00:58:54;;;;;;;488.30;439.25;;;12.60;97.10;;;11.77;100.00;100909.16;5090788;28;20414;-65
2021/11/12 01:01:23;;;;;;;495.07;446.37;;;12.60;97.20;;;11.76;100.00;100907.56;5092213;28;20456;-65
2021/11/12 01:03:54;;;;;;;490.00;441.40;;;12.60;97.00;;;11.72;100.00;100895.69;5092445;28;20406;-71
2021/11/12 01:06:23;;;;;;;488.65;440.35;;;12.60;96.90;;;11.70;100.00;100908.75;5092331;28;20401;-68
2021/11/12 01:08:52;;;;;;;485.87;437.20;;;12.50;96.80;;;11.70;100.00;100897.91;5091575;28;20401;-64
2021/11/12 01:11:22;;;;;;;484.20;435.67;;;12.50;96.80;;;11.69;100.00;100892.75;5091788;28;20414;-65
2021/11/12 01:13:52;;;;;;;484.88;435.88;;;12.50;96.70;;;11.70;100.00;100903.31;5092431;28;20518;-68
2021/11/12 01:16:21;;;;;;;487.65;439.60;;;12.50;96.90;;;11.63;100.00;100892.03;5092552;28;20428;-64
2021/11/12 01:18:54;;;;;;;480.73;433.13;;;12.50;96.50;;;11.48;100.00;100900.38;5091931;28;20527;-65
2021/11/12 01:21:23;;;;;;;469.90;421.95;;;12.30;96.00;;;11.41;100.00;100897.22;5091829;28;20498;-66
2021/11/12 01:23:53;;;;;;;465.52;417.92;;;12.20;96.30;;;11.35;100.00;100895.69;5091940;28;20414;-68
2021/11/12 01:26:24;;;;;;;470.13;421.73;;;12.20;96.30;;;11.32;100.00;100897.09;5091705;28;20459;-67
2021/11/12 01:28:54;;;;;;;468.63;420.63;;;12.10;96.40;;;11.22;100.00;100889.09;5091271;28;20409;-68
2021/11/12 01:31:27;;;;;;;466.60;418.25;;;12.00;96.20;;;11.12;100.00;100883.03;5092144;28;20475;-69
2021/11/12 01:33:58;;;;;;;456.93;408.70;;;12.00;96.20;;;11.08;100.00;100882.81;5091945;28;20424;-68
2021/11/12 01:36:32;;;;;;;447.05;399.23;;;11.90;96.30;;;11.02;100.00;100883.16;5081705;28;20419;-67
2021/11/12 01:39:05;;;;;;;450.33;401.77;;;11.90;96.20;;;11.08;100.00;100888.22;5070790;28;20413;-66
2021/11/12 01:41:34;;;;;;;439.33;391.80;;;11.90;96.70;;;11.09;100.00;100886.31;5072257;28;20414;-67
2021/11/12 01:44:08;;;;;;;448.58;400.33;;;11.90;96.50;;;11.09;100.00;100886.31;5072075;28;20870;-65
2021/11/12 01:46:47;;;;;;;452.23;404.27;;;11.90;96.50;;;11.10;100.00;100885.19;5070842;28;20882;-65
2021/11/12 01:52:08;;;;;;;456.40;408.23;;;11.90;96.30;;;11.03;100.00;100884.78;5068185;28;20492;-68
2021/11/12 01:57:53;;;;;;;439.37;391.73;;;11.80;96.10;;;11.02;100.00;100870.44;5047219;28;20495;-64
2021/11/12 02:00:25;;;;;;;438.90;392.10;;;11.80;96.50;;;10.90;100.00;100870.88;5071018;28;20866;-68
2021/11/12 02:02:54;;;;;;;441.13;393.70;;;11.70;95.90;;;10.88;100.00;100867.63;5071313;28;20453;-65
2021/11/12 02:05:24;;;;;;;437.58;390.00;;;11.70;96.20;;;10.84;100.00;100872.03;5071051;28;20473;-62
2021/11/12 02:07:53;;;;;;;438.05;389.63;;;11.60;96.20;;;10.80;100.00;100870.19;5071296;28;20928;-67
2021/11/12 02:10:26;;;;;;;435.10;386.52;;;11.60;96.30;;;10.80;100.00;100879.09;5071056;28;20465;-70
2021/11/12 02:13:03;;;;;;;427.60;380.48;;;11.60;96.40;;;10.70;100.00;100868.41;5071792;28;20477;-66
2021/11/12 02:15:33;;;;;;;439.67;392.08;;;11.50;96.20;;;10.66;100.00;100877.38;5071766;28;20902;-64
2021/11/12 02:18:07;;;;;;;430.98;383.98;;;11.50;96.30;;;10.57;100.00;100879.94;5071652;28;20422;-68
2021/11/12 02:20:40;;;;;;;435.23;387.98;;;11.40;96.00;;;10.58;100.00;100876.13;5070801;28;20416;-70
2021/11/12 02:23:10;;;;;;;420.40;372.35;;;11.40;96.20;;;10.41;100.00;100876.59;5071837;28;20419;-66
2021/11/12 02:25:40;;;;;;;421.35;365.85;;;11.20;95.70;;;10.29;100.00;100873.47;5071539;28;20422;-65
2021/11/12 02:28:10;;;;;;;435.80;362.23;;;11.10;95.60;;;10.23;100.00;100874.63;5071517;28;20883;-68
2021/11/12 02:30:40;;;;;;;433.67;363.23;;;11.00;95.80;;;10.27;100.00;100882.97;5070583;28;20469;-71
2021/11/12 02:33:12;;;;;;;432.33;363.85;;;11.10;96.30;;;10.16;100.00;100879.53;5071623;28;20431;-69
2021/11/12 02:35:42;;;;;;;423.15;352.20;;;11.00;96.00;;;10.15;100.00;100874.44;5071526;28;20421;-67
2021/11/12 02:38:13;;;;;;;429.23;360.08;;;11.00;96.10;;;10.14;100.00;100872.81;5071368;28;20447;-65
2021/11/12 02:40:41;;;;;;;423.73;356.37;;;11.00;96.20;;;10.15;100.00;100866.34;5070549;28;20403;-69
2021/11/12 02:43:09;;;;;;;421.50;354.20;;;11.00;96.20;;;10.12;100.00;100875.75;5071358;28;20535;-63
2021/11/12 02:45:39;;;;;;;417.85;348.83;;;11.00;96.00;;;10.07;100.00;100869.59;5071269;28;20416;-68
2021/11/12 02:48:07;;;;;;;425.83;349.48;;;10.90;95.80;;;10.09;100.00;100868.22;5071248;28;20415;-68
2021/11/12 02:50:35;;;;;;;432.13;357.92;;;10.90;96.10;;;10.16;100.00;100863.34;5070288;28;20820;-66
2021/11/12 02:53:08;;;;;;;446.33;364.35;;;10.90;96.50;;;10.34;100.00;100870.72;5070823;28;20435;-65
2021/11/12 02:55:38;;;;;;;437.05;369.20;;;11.10;97.20;;;10.50;100.00;100862.44;5070894;28;20773;-63
2021/11/12 02:58:07;;;;;;;438.70;377.15;;;11.30;97.30;;;10.59;100.00;100856.09;5071099;28;20419;-68
2021/11/12 03:00:38;;;;;;;443.70;385.65;;;11.40;97.40;;;10.70;100.00;100857.59;5070279;28;21016;-67
2021/11/12 03:03:07;;;;;;;445.65;394.67;;;11.60;97.70;;;10.87;100.00;100855.22;5070837;28;20415;-63
2021/11/12 03:05:36;;;;;;;447.33;397.90;;;11.70;97.90;;;11.01;100.00;100863.41;5070731;28;20415;-68
2021/11/12 03:08:05;;;;;;;454.70;405.45;;;11.90;98.00;;;11.12;100.00;100853.25;5070639;28;20498;-64
2021/11/12 03:10:33;;;;;;;474.48;425.40;;;12.00;98.00;;;11.23;100.00;100866.34;5069815;28;20450;-65
2021/11/12 03:13:03;;;;;;;460.52;412.20;;;12.10;98.00;;;11.20;100.00;100863.41;5070642;28;20466;-65
2021/11/12 03:15:31;;;;;;;465.08;416.98;;;12.10;97.70;;;11.21;100.00;100871.25;5070661;28;20415;-66
2021/11/12 03:18:00;;;;;;;454.90;406.77;;;12.10;97.60;;;11.22;100.00;100862.03;5070511;28;20415;-65
2021/11/12 03:20:30;;;;;;;468.48;420.27;;;12.10;97.60;;;11.15;100.00;100852.69;5069186;28;20762;-70
2021/11/12 03:23:02;;;;;;;465.45;417.23;;;12.00;97.40;;;11.07;100.00;100851.41;5070465;28;20419;-67
2021/11/12 03:25:36;;;;;;;458.70;410.63;;;11.90;97.20;;;10.97;100.00;100852.34;5070593;28;20415;-63
2021/11/12 03:28:18;;;;;;;455.63;407.45;;;11.90;97.10;;;10.90;100.00;100856.53;5070402;28;20844;-66
2021/11/12 04:01:43;;;;;;;437.17;389.73;;;11.50;96.60;;;10.60;100.00;100836.09;5069974;28;20513;-66
2021/11/12 04:07:20;;;;;;;435.30;388.25;;;11.50;96.60;;;10.52;100.00;100827.81;5108192;27;20502;-64
2021/11/12 04:18:14;;;;;;;418.40;364.02;;;11.00;95.80;;;10.14;100.00;100832.28;5087260;28;20430;-65
2021/11/12 05:46:38;;;;;;;423.20;331.27;;;10.20;96.30;;;9.42;100.00;100855.59;5066428;28;20999;-67
2021/11/12 05:52:03;;;;;;;422.40;334.40;;;10.30;96.10;;;9.56;100.00;100855.75;5072080;28;20872;-66
2021/11/12 05:57:17;;;;;;;422.38;338.02;;;10.50;96.50;;;9.70;100.00;100857.50;5072218;28;20800;-64
2021/11/12 05:59:48;;;;;;;419.58;338.83;;;10.50;96.50;;;9.67;100.00;100855.38;5071238;28;20442;-68
2021/11/12 06:02:18;;;;;;;420.77;335.30;;;10.50;96.20;;;9.62;100.00;100850.03;5071781;28;20448;-61
2021/11/12 06:04:46;;;;;;;423.27;336.20;;;10.50;96.10;;;9.61;100.00;100845.69;5072638;28;20419;-69
2021/11/12 06:07:14;;;;;;;420.15;339.00;;;10.50;96.20;;;9.59;100.00;100847.88;5091870;28;20430;-66
2021/11/12 06:09:42;;;;;;;418.48;331.38;;;10.40;95.90;;;9.56;100.00;100845.75;5091339;28;20494;-67
2021/11/12 06:12:12;;;;;;;416.48;329.13;;;10.40;95.80;;;9.51;100.00;100840.41;5092082;28;20421;-68
2021/11/12 06:14:41;;;;;;;422.30;328.67;;;10.40;95.70;;;9.50;100.00;100849.59;5091986;28;20409;-67
2021/11/12 06:17:09;;;;;;;431.77;333.20;;;10.30;95.80;;;9.65;100.00;100846.75;5091876;28;20401;-65
2021/11/12 06:19:40;;;;;;;446.03;349.73;;;10.40;96.60;;;9.88;100.00;100848.72;5091010;28;20410;-64
2021/11/12 06:22:08;;;;;;;437.77;359.45;;;10.70;97.10;;;10.05;100.00;100845.59;5091713;28;20467;-67
2021/11/12 06:24:37;;;;;;;430.30;371.20;;;10.90;97.20;;;10.13;100.00;100852.25;5091812;28;20410;-66
2021/11/12 06:27:06;;;;;;;426.98;363.25;;;11.00;97.10;;;10.03;100.00;100855.84;5091798;28;20788;-64
2021/11/12 06:29:35;;;;;;;433.90;376.70;;;10.90;96.70;;;10.07;100.00;100858.78;5089972;28;20455;-64
2021/11/12 06:32:05;;;;;;;431.15;374.67;;;10.90;96.90;;;10.09;100.00;100865.53;5091351;28;20467;-63
2021/11/12 06:34:33;;;;;;;436.05;377.38;;;10.90;96.80;;;10.13;100.00;100863.06;5091545;28;20414;-65
2021/11/12 06:37:03;;;;;;;432.30;372.50;;;11.00;96.90;;;10.16;100.00;100862.53;5091572;28;20421;-67
2021/11/12 06:39:31;;;;;;;426.55;364.27;;;11.00;96.80;;;10.08;100.00;100857.72;5090964;28;20409;-62
2021/11/12 06:42:02;;;;;;;429.25;360.50;;;11.00;96.40;;;9.99;100.00;100862.13;5091329;28;20414;-66
2021/11/12 06:50:12;;;;;;;441.08;359.15;;;10.60;96.50;;;9.86;100.00;100853.59;5090625;28;20429;-62
2021/11/12 06:52:44;;;;;;;449.75;358.98;;;10.70;97.00;;;9.99;100.00;100860.25;5091081;28;20418;-65
2021/11/12 06:55:14;;;;;;;446.05;360.23;;;10.80;97.40;;;10.10;100.00;100860.94;5091199;28;20416;-65
2021/11/12 06:57:44;;;;;;;447.13;364.70;;;11.00;97.50;;;10.18;100.00;100861.13;5091105;28;20414;-65
2021/11/12 07:00:16;;;;;;;443.95;361.30;;;11.00;97.30;;;10.20;100.00;100864.38;5090642;28;20413;-63
2021/11/12 07:02:45;;;;;;;442.80;367.08;;;11.10;97.20;;;10.26;100.00;100862.44;5090968;28;20461;-64
2021/11/12 07:05:14;;;;;;;448.63;374.98;;;11.10;97.30;;;10.30;100.00;100858.06;5090745;28;20826;-65
2021/11/12 07:07:45;;;;;;;449.37;378.87;;;11.20;97.50;;;10.40;100.00;100864.16;5090801;28;20753;-64
2021/11/12 07:10:13;;;;;;;453.05;386.13;;;11.20;97.70;;;10.47;100.00;100880.03;5090335;28;20505;-66
2021/11/12 07:12:42;;;;;;;462.25;395.25;;;11.30;97.80;;;10.51;100.00;100880.28;5090884;28;20509;-64
2021/11/12 07:15:11;;;;;;;455.17;396.27;;;11.40;97.90;;;10.69;100.00;100880.34;5090876;28;20406;-65
2021/11/12 07:17:39;;;;;;;468.58;405.17;;;11.50;98.10;;;10.81;100.00;100880.72;5090538;28;20526;-65
2021/11/12 07:20:09;;;;;;;475.20;412.35;;;11.60;98.20;;;10.93;100.00;100885.72;5089829;28;20466;-64
2021/11/12 07:22:37;;;;;;;469.13;418.13;;;11.80;98.30;;;11.05;100.00;100886.09;5090550;28;20461;-63
2021/11/12 07:25:10;;;;;;;479.48;428.10;;;11.80;98.20;;;11.12;100.00;100885.75;5090874;28;20461;-63
2021/11/12 07:27:38;;;;;;;490.33;438.03;;;11.90;98.20;;;11.15;100.00;100890.56;5090463;28;20425;-66
2021/11/12 07:30:12;;;;;;;487.35;435.13;;;12.00;98.20;;;11.21;100.00;100895.63;5089888;28;20413;-63
2021/11/12 07:32:42;;;;;;;491.20;438.70;;;12.00;98.20;;;11.25;100.00;100893.91;5090285;28;20413;-66
2021/11/12 07:35:11;;;;;;;498.60;446.67;;;12.00;98.10;;;11.24;100.00;100894.22;5090490;28;20433;-63
2021/11/12 07:37:39;;;;;;;508.45;456.17;;;12.10;98.10;;;11.24;100.00;100894.22;5090437;28;20448;-64
2021/11/12 07:40:19;;;;;;;494.67;441.70;;;12.10;98.10;;;11.22;100.00;100886.38;5089525;28;20416;-65
2021/11/12 07:42:56;;;;;;;499.67;446.60;;;12.10;98.10;;;11.26;100.00;100895.53;5090164;28;20409;-66
2021/11/12 07:45:36;;;;;;;502.90;449.13;;;12.10;98.10;;;11.30;100.00;100893.88;5090216;28;20410;-67
2021/11/12 07:48:05;;;;;;;505.42;451.70;;;12.10;98.10;;;11.34;100.00;100897.59;5090233;28;20449;-67
2021/11/12 07:50:35;;;;;;;493.35;440.95;;;12.20;98.10;;;11.35;100.00;100885.66;5089330;28;20413;-67
2021/11/12 07:53:03;;;;;;;503.90;451.23;;;12.10;98.10;;;11.33;100.00;100884.34;5089824;28;20796;-61
2021/11/12 07:55:33;;;;;;;503.67;451.05;;;12.10;98.10;;;11.38;100.00;100885.06;5090046;28;20409;-68
2021/11/12 07:58:01;;;;;;;493.13;440.97;;;12.20;98.10;;;11.39;100.00;100881.28;5090189;28;20413;-64
2021/11/12 08:00:29;;;;;;;489.23;438.77;;;12.20;98.10;;;11.41;100.00;100880.97;5089398;28;20410;-66
2021/11/12 08:02:57;;;;;;;503.50;451.65;;;12.20;98.10;;;11.46;100.00;100887.13;5089645;28;20445;-68
2021/11/12 08:05:28;;;;;;;497.48;445.35;;;12.30;98.20;;;11.52;100.00;100885.13;5089923;28;20880;-68
2021/11/12 08:08:02;;;;;;;510.45;458.58;;;12.30;98.20;;;11.57;100.00;100892.38;5088661;28;20868;-66
2021/11/12 08:10:37;;;;;;;503.35;452.73;;;12.30;98.20;;;11.61;100.00;100888.00;5088273;28;20409;-66
2021/11/12 08:13:10;;;;;;;495.52;445.58;;;12.40;98.10;;;11.69;100.00;100900.88;5089704;28;20456;-66
2021/11/12 08:15:47;;;;;;;501.73;452.23;;;12.40;98.00;;;11.68;100.00;100900.06;5089729;28;20505;-66
2021/11/12 08:21:01;;;;;;;518.42;468.08;;;12.50;98.10;;;11.83;100.00;100901.75;5084211;28;20467;-68
2021/11/12 08:23:40;;;;;;;532.65;480.02;;;12.50;98.00;;;11.80;100.00;100896.91;5090155;28;20420;-66
2021/11/12 08:26:12;;;;;;;528.25;476.05;;;12.60;98.10;;;11.86;100.00;100896.53;5089846;28;20426;-62
2021/11/12 08:29:03;;;;;;;525.97;473.13;;;12.60;98.10;;;11.96;100.00;100884.72;5089595;28;20504;-64
2021/11/12 08:31:38;;;;;;;549.43;495.60;;;12.70;98.10;;;12.04;100.00;100886.75;5089825;28;20413;-67
2021/11/12 08:34:10;;;;;;;549.95;496.45;;;12.80;98.10;;;12.20;100.00;100887.28;5089672;28;20405;-67
2021/11/12 08:36:56;;;;;;;532.67;480.33;;;13.00;98.20;;;12.30;100.00;100884.41;5088775;28;21009;-62
2021/11/12 08:39:39;;;;;;;534.85;483.35;;;13.10;98.00;;;12.38;100.00;100889.13;5088944;28;20513;-65
2021/11/12 08:42:12;;;;;;;543.38;491.33;;;13.10;97.70;;;12.46;100.00;100888.44;5089439;28;20993;-68
2021/11/12 08:44:44;;;;;;;542.03;490.30;;;13.20;97.80;;;12.57;100.00;100898.00;5089624;28;20775;-64
2021/11/12 08:47:15;;;;;;;545.40;494.42;;;13.30;97.60;;;12.62;100.00;100892.44;5088771;28;20445;-67
2021/11/12 08:49:44;;;;;;;548.50;496.95;;;13.40;97.50;;;12.61;100.00;100894.34;5088610;28;20413;-67
2021/11/12 08:52:17;;;;;;;552.07;500.13;;;13.40;97.40;;;12.60;100.00;100890.06;5090544;28;20412;-66
2021/11/12 08:54:47;;;;;;;554.78;502.40;;;13.40;97.40;;;12.72;100.00;100896.88;5093548;28;20414;-65
2021/11/12 08:57:18;;;;;;;548.97;497.08;;;13.40;97.40;;;12.87;100.00;100905.53;5093128;28;20413;-67
2021/11/12 08:59:49;;;;;;;558.20;506.55;;;13.60;97.30;;;13.00;100.00;100904.72;5092460;28;20475;-65
2021/11/12 09:02:23;;;;;;;559.40;508.07;;;13.80;97.20;;;12.94;100.00;100915.97;5093328;28;20525;-62
2021/11/12 09:04:52;;;;;;;566.38;514.10;;;13.70;96.80;;;12.94;100.00;100913.25;5093315;28;20483;-68
2021/11/12 09:07:21;;;;;;;571.47;518.70;;;13.70;97.20;;;13.06;100.00;100916.25;5093088;28;20499;-62
2021/11/12 09:09:50;;;;;;;569.40;516.88;;;13.80;97.30;;;13.16;100.00;100918.81;5092294;28;20421;-63
2021/11/12 09:12:22;;;;;;;416.53;268.20;;;14.00;97.10;;;13.27;100.00;100922.09;5094453;28;20266;-65
2021/11/12 09:14:51;;;;;;;526.20;474.40;;;14.00;96.90;;;13.20;100.00;100922.50;5093159;28;20504;-66
2021/11/12 09:17:21;;;;;;;567.50;515.65;;;14.00;96.90;;;13.23;100.00;100931.94;5092906;28;20424;-67
2021/11/12 09:19:51;;;;;;;585.10;533.43;;;14.00;96.60;;;13.27;100.00;100933.75;5092224;28;20880;-68
2021/11/12 09:22:23;;;;;;;595.33;542.80;;;14.00;96.40;;;13.26;100.00;100937.56;5092793;28;20413;-64
2021/11/12 09:24:52;;;;;;;592.40;539.58;;;14.00;96.40;;;13.25;100.00;100933.28;5092734;28;20406;-68
2021/11/12 09:27:23;;;;;;;592.05;539.47;;;14.10;96.50;;;13.24;100.00;100917.25;5092552;28;20915;-68
2021/11/12 09:29:52;;;;;;;593.80;540.93;;;14.00;96.30;;;13.25;100.00;100914.25;5092270;28;20417;-67
2021/11/12 09:32:21;;;;;;;590.93;538.37;;;14.00;96.30;;;13.23;100.00;100911.03;5092791;28;20402;-68
2021/11/12 09:34:49;;;;;;;597.33;544.63;;;14.00;96.20;;;13.19;100.00;100911.97;5092594;28;20410;-66
2021/11/12 09:37:21;;;;;;;585.00;532.57;;;13.90;96.10;;;13.29;100.00;100923.38;5092346;28;20406;-67
2021/11/12 09:39:54;;;;;;;591.53;539.27;;;14.00;96.30;;;13.43;100.00;100917.94;5091812;28;20417;-66
2021/11/12 09:42:27;;;;;;;583.33;531.55;;;14.10;96.20;;;13.55;100.00;100910.06;5092594;28;20410;-69
2021/11/12 09:44:57;;;;;;;592.00;540.35;;;14.30;96.10;;;13.62;100.00;100900.34;5092504;28;20459;-63
2021/11/12 09:47:26;;;;;;;593.20;542.13;;;14.30;95.90;;;13.90;100.00;100889.34;5092308;28;20758;-66
2021/11/12 09:49:58;;;;;;;613.60;561.65;;;14.50;96.10;;;14.09;100.00;100895.41;5091334;28;20414;-66
2021/11/12 09:52:27;;;;;;;618.65;566.47;;;14.70;95.90;;;14.32;100.00;100893.47;5092307;28;20409;-68
2021/11/12 09:54:57;;;;;;;630.97;579.00;;;15.00;96.50;;;14.60;100.00;100895.69;5092405;28;20918;-68
2021/11/12 09:57:27;;;;;;;644.20;592.03;;;15.30;95.50;;;14.97;100.00;100888.91;5092320;28;20433;-69
2021/11/12 09:59:58;;;;;;;656.90;604.58;;;15.60;95.20;;;14.97;100.00;100901.72;5091320;28;20414;-67
2021/11/12 10:02:29;;;;;;;664.72;612.85;;;15.60;94.80;;;15.07;100.00;100899.50;5092162;28;20505;-68
2021/11/12 10:04:57;;;;;;;677.20;624.78;;;15.70;94.80;;;15.12;100.00;100898.53;5091816;28;20410;-65
2021/11/12 10:07:26;;;;;;;678.30;626.03;;;15.80;94.40;;;15.19;100.00;100902.41;5092136;28;20482;-63
2021/11/12 10:10:06;;;;;;;677.25;625.28;;;15.80;93.80;;;15.37;100.00;100910.59;5091189;28;20506;-65
2021/11/12 10:12:42;;;;;;;684.78;632.33;;;16.00;94.00;;;15.52;100.00;100921.88;5091836;28;20402;-62
2021/11/12 10:15:15;;;;;;;688.20;635.90;;;16.20;93.80;;;15.65;100.00;100906.47;5091975;28;20421;-68
2021/11/12 10:17:44;;;;;;;696.53;644.27;;;16.30;93.40;;;15.76;100.00;100905.81;5092009;28;20413;-65
2021/11/12 10:20:16;;;;;;;710.30;658.13;;;16.40;93.20;;;15.86;100.00;100907.44;5091132;28;20448;-66
2021/11/12 10:22:47;;;;;;;712.83;660.13;;;16.50;93.00;;;15.90;100.00;100897.47;5091726;28;20891;-69
2021/11/12 10:25:18;;;;;;;711.92;659.58;;;16.60;92.50;;;16.03;100.00;100896.47;5091606;28;20417;-66
2021/11/12 10:27:51;;;;;;;714.97;662.57;;;16.70;92.40;;;16.17;100.00;100888.91;5091435;28;20426;-68
2021/11/12 10:30:22;;;;;;;718.33;665.38;;;16.80;92.30;;;16.22;100.00;100891.47;5090989;28;20412;-65
2021/11/12 10:32:55;;;;;;;733.47;680.30;;;16.90;91.70;;;16.26;100.00;100895.13;5091731;28;20445;-63
2021/11/12 10:35:26;;;;;;;727.13;673.95;;;16.90;91.70;;;16.27;100.00;100891.28;5091461;28;20417;-62
2021/11/12 10:37:56;;;;;;;733.70;681.17;;;16.90;91.60;;;16.44;100.00;100874.06;5091220;28;20413;-69
2021/11/12 10:40:29;;;;;;;739.55;686.90;;;17.00;91.70;;;16.32;100.00;100866.53;5090811;28;20420;-66
2021/11/12 10:42:59;;;;;;;735.25;682.88;;;17.00;91.20;;;16.28;100.00;100873.78;5091454;28;20505;-67
2021/11/12 10:45:31;;;;;;;737.33;684.97;;;17.00;92.00;;;16.41;100.00;100869.25;5091430;28;20904;-65
2021/11/12 10:48:03;;;;;;;737.17;684.67;;;17.10;91.20;;;16.42;100.00;100849.00;5091074;28;20929;-68
2021/11/12 10:50:33;;;;;;;734.78;682.53;;;17.10;91.30;;;16.41;100.00;100837.28;5090456;28;20406;-66
2021/11/12 10:53:07;;;;;;;737.53;685.33;;;17.10;90.90;;;16.57;100.00;100834.84;5091216;28;20413;-68
2021/11/12 10:55:35;;;;;;;755.25;702.65;;;17.20;90.90;;;16.91;100.00;100822.91;5091156;28;20414;-67
2021/11/12 10:58:09;;;;;;;760.28;707.40;;;17.60;91.10;;;17.00;100.00;100822.84;5090846;28;20497;-71
2021/11/12 11:00:44;;;;;;;754.63;701.88;;;17.70;90.40;;;17.08;100.00;100822.81;5090099;28;20451;-64
2021/11/12 11:03:15;;;;;;;771.55;718.65;;;17.80;90.50;;;17.18;100.00;100818.84;5090918;28;20410;-68
2021/11/12 11:05:47;;;;;;;770.17;717.30;;;17.90;90.20;;;17.27;100.00;100823.13;5090992;28;20943;-67
2021/11/12 11:08:21;;;;;;;781.72;728.45;;;18.00;90.10;;;17.45;100.00;100834.69;5090791;28;20469;-64
2021/11/12 11:10:54;;;;;;;787.10;733.78;;;18.10;89.30;;;17.61;100.00;100826.69;5090215;28;20471;-66
2021/11/12 11:13:26;;;;;;;794.88;741.47;;;18.30;88.90;;;17.76;100.00;100831.53;5090703;28;20868;-66
2021/11/12 11:15:56;;;;;;;802.33;748.70;;;18.40;88.00;;;17.85;100.00;100813.91;5090388;28;20467;-63
2021/11/12 11:18:27;;;;;;;800.42;746.92;;;18.50;87.40;;;17.89;100.00;100809.38;5090544;28;20478;-64
2021/11/12 11:21:05;;;;;;;799.90;746.58;;;18.50;88.10;;;17.95;100.00;100802.53;5090000;28;20402;-67
2021/11/12 11:23:52;;;;;;;812.93;759.07;;;18.60;87.20;;;18.10;100.00;100792.88;5090518;28;20406;-63
2021/11/12 11:26:22;;;;;;;810.42;756.67;;;18.70;87.10;;;18.23;100.00;100783.53;5090547;28;20439;-65
2021/11/12 11:28:55;;;;;;;827.72;773.75;;;18.90;86.00;;;18.24;100.00;100787.84;5089865;28;20433;-66
2021/11/12 11:31:23;;;;;;;817.67;764.00;;;18.90;85.10;;;18.11;100.00;100783.53;5090413;28;20998;-66
2021/11/12 11:33:53;;;;;;;815.10;761.30;;;18.80;86.20;;;18.10;100.00;100773.72;5090430;28;20420;-67
2021/11/12 11:36:25;;;;;;;819.22;765.33;;;18.80;85.50;;;18.04;100.00;100777.81;5090183;28;20422;-68
2021/11/12 11:38:56;;;;;;;821.20;767.22;;;18.80;85.00;;;18.03;100.00;100771.53;5089868;28;20718;-64
2021/11/12 11:41:26;;;;;;;820.40;766.60;;;18.70;85.00;;;18.09;100.00;100769.38;5090349;28;20422;-64
2021/11/12 11:43:56;;;;;;;821.47;768.05;;;18.80;85.50;;;18.36;100.00;100773.38;5090286;28;20414;-68
2021/11/12 11:46:27;;;;;;;831.38;777.70;;;19.00;84.40;;;18.34;100.00;100768.25;5090273;28;20422;-65
2021/11/12 11:48:58;;;;;;;829.55;775.65;;;19.00;83.00;;;18.25;100.00;100761.28;5089420;28;20476;-64
2021/11/12 11:51:32;;;;;;;819.40;765.63;;;18.90;82.80;;;18.26;100.00;100758.22;5090249;28;20441;-66
2021/11/12 11:54:06;;;;;;;829.13;775.43;;;18.90;84.20;;;18.50;100.00;100751.94;5090191;28;20417;-65
2021/11/12 11:56:37;;;;;;;830.00;776.17;;;19.20;84.20;;;18.64;100.00;100746.09;5090092;28;20733;-67
2021/11/12 11:59:13;;;;;;;833.17;779.45;;;19.30;82.60;;;18.66;100.00;100732.88;5089295;28;20405;-63
2021/11/12 12:01:47;;;;;;;830.90;777.10;;;19.30;82.60;;;18.88;100.00;100729.59;5089848;28;20417;-65
2021/11/12 12:04:32;;;;;;;841.92;788.03;;;19.60;82.80;;;19.02;100.00;100735.50;5090217;28;20418;-67
2021/11/12 12:07:31;;;;;;;850.38;796.00;;;19.80;81.90;;;18.99;100.00;100738.94;5089804;28;20834;-64
2021/11/12 12:10:22;;;;;;;856.38;801.75;;;19.70;81.60;;;19.12;100.00;100735.00;5088833;28;20417;-67
2021/11/12 12:13:04;;;;;;;862.67;807.80;;;19.90;81.90;;;19.36;100.00;100737.63;5089323;28;20433;-63
2021/11/12 12:15:44;;;;;;;869.88;815.08;;;20.10;81.40;;;19.37;100.00;100733.75;5089893;28;20905;-66
2021/11/12 12:18:31;;;;;;;868.60;814.00;;;20.20;80.10;;;19.45;100.00;100730.09;5089910;28;20463;-68
2021/11/12 12:21:43;;;;;;;875.88;820.90;;;20.20;80.70;;;19.46;100.00;100734.41;5089307;28;20943;-63
2021/11/12 12:30:58;;;;;;;867.00;812.03;;;20.20;82.40;;;19.14;100.00;100732.72;5093185;28;20443;-65
2021/11/12 13:22:48;;;;;;;852.87;798.23;;;20.00;84.60;;;19.18;100.00;100675.25;5069695;28;20918;-66
2021/11/12 13:25:29;;;;;;;855.30;800.42;;;20.00;84.90;;;19.19;100.00;100682.31;5092732;28;20509;-67
2021/11/12 13:28:17;;;;;;;845.33;791.00;;;20.00;84.90;;;19.10;100.00;100674.25;5092608;28;20437;-66
2021/11/12 13:30:49;;;;;;;851.95;797.38;;;20.00;84.70;;;19.16;100.00;100675.59;5092028;28;20496;-64
2021/11/12 13:33:41;;;;;;;850.35;796.03;;;20.00;85.70;;;19.13;100.00;100670.81;5092510;28;20410;-64
2021/11/12 13:36:24;;;;;;;853.78;799.05;;;20.00;84.60;;;19.12;100.00;100662.94;5092787;28;20409;-62
2021/11/12 13:38:59;;;;;;;856.92;801.88;;;19.90;84.80;;;19.20;100.00;100660.03;5091320;28;20890;-66